Bookmark and Share
Track history (hours):
 

Seaspan Chiwan

Last reported at 2014-Apr-22 07:33 UTC. Time now 2014-Apr-23 13:13 UTC.
Position N 38°28' W 123°59'.

Length 260 m; draft 8.9 m.

Type: Cargo ship. MMSI: 477014500.

NotesDate/timePositionNaut miles runAvg speedWind from/ knotsBaromVisibWave heightAir tempDewpointWater temp
2014-Apr-22 07:33N 38°28' W 123°59'1212.0
2014-Apr-22 06:33N 38°20' W 123°48'1211.8
2014-Apr-22 05:33N 38°12' W 123°37'1111.2
2014-Apr-22 04:33N 38°09' W 123°23'1111.5
2014-Apr-22 03:33N 38°02' W 123°12'1212.4
2014-Apr-22 02:33N 37°54' W 122°59'1212.5
2014-Apr-22 01:33N 37°48' W 122°45'10 9.6
2014-Apr-22 00:33N 37°47' W 122°33'1010.0
2014-Apr-21 23:33N 37°48' W 122°21'1 1.3
2014-Apr-21 22:31N 37°49' W 122°19'0 0.0
2014-Apr-21 21:31N 37°49' W 122°19'0 0.0
2014-Apr-21 20:31N 37°49' W 122°19'0 0.0
2014-Apr-21 19:31N 37°49' W 122°19'0 0.0
2014-Apr-21 18:31N 37°49' W 122°19'0 0.0
2014-Apr-21 17:31N 37°49' W 122°19'0 0.0
2014-Apr-21 16:31N 37°49' W 122°19'0 0.0
2014-Apr-21 15:31N 37°49' W 122°19'0 0.0
2014-Apr-21 14:31N 37°49' W 122°19'0 0.0
2014-Apr-21 13:31N 37°49' W 122°19'0 0.0
2014-Apr-21 12:28N 37°49' W 122°19'0 0.0
2014-Apr-21 11:31N 37°49' W 122°19'0 0.0
2014-Apr-21 10:31N 37°49' W 122°19'0 0.0
2014-Apr-21 09:31N 37°49' W 122°19'0 0.0
2014-Apr-21 08:31N 37°49' W 122°19'0 0.0
2014-Apr-21 07:31N 37°49' W 122°19'0 0.0
2014-Apr-21 06:31N 37°49' W 122°19'0 0.0
2014-Apr-21 05:31N 37°49' W 122°19'0 0.0
2014-Apr-21 04:28N 37°49' W 122°19'0 0.0
2014-Apr-21 03:31N 37°49' W 122°19'0 0.0
2014-Apr-21 02:31N 37°49' W 122°19'0 0.0
2014-Apr-21 01:31N 37°49' W 122°19'0 0.0
2014-Apr-21 00:28N 37°49' W 122°19'0 0.1
2014-Apr-20 23:31N 37°49' W 122°19'0 0.0
2014-Apr-20 22:31N 37°49' W 122°19'0 0.0
2014-Apr-20 21:31N 37°49' W 122°19'0 0.3
2014-Apr-20 20:34N 37°49' W 122°19'1010.0
2014-Apr-20 19:33N 37°48' W 122°32'1211.5
2014-Apr-20 18:33N 37°42' W 122°44'9 9.2
2014-Apr-20 17:33N 37°37' W 122°54'1010.1
2014-Apr-20 16:33N 37°29' W 123°03'1010.4
2014-Apr-20 15:33N 37°19' W 123°00'1414.2
2014-Apr-20 14:33N 37°06' W 122°55'1414.4
2014-Apr-20 13:33N 36°52' W 122°48'1514.7
2014-Apr-20 12:33N 36°38' W 122°41'1514.7
2014-Apr-20 11:33N 36°25' W 122°35'1514.6
2014-Apr-20 10:33N 36°11' W 122°27'1514.8
2014-Apr-20 09:33N 35°59' W 122°17'1515.0
2014-Apr-20 08:33N 35°46' W 122°08'1414.5
2014-Apr-20 07:33N 35°34' W 121°58'1514.1
2014-Apr-20 06:30N 35°21' W 121°49'1314.3
2014-Apr-20 05:33N 35°10' W 121°39'1414.4
2014-Apr-20 04:33N 34°58' W 121°31'1514.3
2014-Apr-20 03:31N 34°45' W 121°21'2512.5
2014-Apr-20 01:31N 34°28' W 120°59'161 4.1
2014-Apr-18 10:34N 33°20' W 118°03'1010.1
2014-Apr-18 09:34N 33°11' W 117°58'1515.2
2014-Apr-18 08:34N 32°58' W 117°49'1515.4
2014-Apr-18 07:33N 32°43' W 117°43'1615.8
2014-Apr-18 06:34N 32°29' W 117°36'11516.4
2014-Apr-17 23:33N 30°37' W 117°05'1616.3
2014-Apr-17 22:33N 30°21' W 117°00'1816.4
2014-Apr-17 21:28N 30°04' W 116°56'70915.8
2014-Apr-16 00:32N 21°01' W 108°30'10412.9
2014-Apr-15 16:26N 20°07' W 106°55'  

Dump ship's entire track history

sailing weather and tide predictions

Seaspan Chiwan — VRBH3 — position and weather